Map

Track Data

SID SEASON NUMBER BASIN SUBBASIN NAME ISO_TIME NATURE LAT LON WMO_WIND WMO_PRES WMO_AGENCY TRACK_TYPE DIST2LAND LANDFALL IFLAG USA_AGENCY USA_ATCF_ID USA_LAT USA_LON USA_RECORD USA_STATUS USA_WIND USA_PRES USA_SSHS USA_R34_NE USA_R34_SE USA_R34_SW USA_R34_NW USA_R50_NE USA_R50_SE USA_R50_SW USA_R50_NW USA_R64_NE USA_R64_SE USA_R64_SW USA_R64_NW USA_POCI USA_ROCI USA_RMW USA_EYE TOKYO_LAT TOKYO_LON TOKYO_GRADE TOKYO_WIND TOKYO_PRES TOKYO_R50_DIR TOKYO_R50_LONG TOKYO_R50_SHORT TOKYO_R30_DIR TOKYO_R30_LONG TOKYO_R30_SHORT TOKYO_LAND CMA_LAT CMA_LON CMA_CAT CMA_WIND CMA_PRES HKO_LAT HKO_LON HKO_CAT HKO_WIND HKO_PRES NEWDELHI_LAT NEWDELHI_LON NEWDELHI_GRADE NEWDELHI_WIND NEWDELHI_PRES NEWDELHI_CI NEWDELHI_DP NEWDELHI_POCI REUNION_LAT REUNION_LON REUNION_TYPE REUNION_WIND REUNION_PRES REUNION_TNUM REUNION_CI REUNION_RMW REUNION_R34_NE REUNION_R34_SE REUNION_R34_SW REUNION_R34_NW REUNION_R50_NE REUNION_R50_SE REUNION_R50_SW REUNION_R50_NW REUNION_R64_NE REUNION_R64_SE REUNION_R64_SW REUNION_R64_NW BOM_LAT BOM_LON BOM_TYPE BOM_WIND BOM_PRES BOM_TNUM BOM_CI BOM_RMW BOM_R34_NE BOM_R34_SE BOM_R34_SW BOM_R34_NW BOM_R50_NE BOM_R50_SE BOM_R50_SW BOM_R50_NW BOM_R64_NE BOM_R64_SE BOM_R64_SW BOM_R64_NW BOM_ROCI BOM_POCI BOM_EYE BOM_POS_METHOD BOM_PRES_METHOD NADI_LAT NADI_LON NADI_CAT NADI_WIND NADI_PRES WELLINGTON_LAT WELLINGTON_LON WELLINGTON_WIND WELLINGTON_PRES DS824_LAT DS824_LON DS824_STAGE DS824_WIND DS824_PRES TD9636_LAT TD9636_LON TD9636_STAGE TD9636_WIND TD9636_PRES TD9635_LAT TD9635_LON TD9635_WIND TD9635_PRES TD9635_ROCI NEUMANN_LAT NEUMANN_LON NEUMANN_CLASS NEUMANN_WIND NEUMANN_PRES MLC_LAT MLC_LON MLC_CLASS MLC_WIND MLC_PRES USA_GUST BOM_GUST BOM_GUST_PER REUNION_GUST REUNION_GUST_PER USA_SEAHGT USA_SEARAD_NE USA_SEARAD_SE USA_SEARAD_SW USA_SEARAD_NW STORM_SPEED STORM_DIR
1877247N14341 1877 25 NA NA NOT_NAMED 1877-09-03 18:00:00 TS 14.4000 -19.0000 main 164 164 _____________O -1 14.4000 -19.0000 TD 25 15 285
1877247N14341 1877 25 NA NA NOT_NAMED 1877-09-03 21:00:00 TS 14.6005 -19.7497 main 237 237 _____________P -1 14.6005 -19.7497 TD 27 15 285
1877247N14341 1877 25 NA NA NOT_NAMED 1877-09-04 00:00:00 TS 14.8000 -20.5000 main 322 322 _____________O -1 14.8000 -20.5000 TD 30 15 285
1877247N14341 1877 25 NA NA NOT_NAMED 1877-09-04 03:00:00 TS 14.9998 -21.2501 main 409 409 _____________P -1 14.9998 -21.2501 TD 32 15 285
1877247N14341 1877 25 NA NA NOT_NAMED 1877-09-04 06:00:00 TS 15.2000 -22.0000 main 486 486 _____________O -1 15.2000 -22.0000 TS 35 15 285
1877247N14341 1877 25 NA NA NOT_NAMED 1877-09-04 09:00:00 TS 15.3997 -22.7501 main 574 574 _____________P -1 15.3997 -22.7501 TS 40 15 285
1877247N14341 1877 25 NA NA NOT_NAMED 1877-09-04 12:00:00 TS 15.6000 -23.5000 main 652 652 _____________O -1 15.6000 -23.5000 TS 45 15 285
1877247N14341 1877 25 NA NA NOT_NAMED 1877-09-04 15:00:00 TS 15.7997 -24.2501 main 740 740 _____________P -1 15.7997 -24.2501 TS 50 15 285
1877247N14341 1877 25 NA NA NOT_NAMED 1877-09-04 18:00:00 TS 16.0000 -25.0000 main 817 817 _____________O -1 16.0000 -25.0000 TS 55 15 286
1877247N14341 1877 25 NA NA NOT_NAMED 1877-09-04 21:00:00 TS 16.1997 -25.7502 main 905 905 _____________P -1 16.1997 -25.7502 TS 60 15 286
1877247N14341 1877 25 NA NA NOT_NAMED 1877-09-05 00:00:00 TS 16.4000 -26.5000 main 982 982 _____________O -1 16.4000 -26.5000 HU 65 15 286
1877247N14341 1877 25 NA NA NOT_NAMED 1877-09-05 03:00:00 TS 16.5997 -27.2502 main 1070 1070 _____________P -1 16.5997 -27.2502 HU 65 15 286
1877247N14341 1877 25 NA NA NOT_NAMED 1877-09-05 06:00:00 TS 16.8000 -28.0000 main 1148 1148 _____________O -1 16.8000 -28.0000 HU 65 15 286
1877247N14341 1877 25 NA NA NOT_NAMED 1877-09-05 09:00:00 TS 16.9997 -28.7502 main 1236 1236 _____________P -1 16.9997 -28.7502 HU 65 15 286
1877247N14341 1877 25 NA NA NOT_NAMED 1877-09-05 12:00:00 TS 17.2000 -29.5000 main 1313 1313 _____________O -1 17.2000 -29.5000 HU 65 15 286
1877247N14341 1877 25 NA NA NOT_NAMED 1877-09-05 15:00:00 TS 17.4148 -30.2575 main 1400 1400 _____________P -1 17.4148 -30.2575 HU 65 15 286
1877247N14341 1877 25 NA NA NOT_NAMED 1877-09-05 18:00:00 TS 17.6000 -31.0000 main 1477 1477 _____________O -1 17.6000 -31.0000 HU 65 14 282
1877247N14341 1877 25 NA NA NOT_NAMED 1877-09-05 21:00:00 TS 17.7147 -31.7078 main 1552 1552 _____________P -1 17.7147 -31.7078 HU 65 13 279
1877247N14341 1877 25 NA NA NOT_NAMED 1877-09-06 00:00:00 TS 17.8000 -32.4000 main 1627 1627 _____________O -1 17.8000 -32.4000 HU 65 13 279
1877247N14341 1877 25 NA NA NOT_NAMED 1877-09-06 03:00:00 TS 17.9148 -33.1074 main 1702 1702 _____________P -1 17.9148 -33.1074 HU 65 13 279
1877247N14341 1877 25 NA NA NOT_NAMED 1877-09-06 06:00:00 TS 18.0000 -33.8000 main 1777 1777 _____________O -1 18.0000 -33.8000 HU 65 13 275
1877247N14341 1877 25 NA NA NOT_NAMED 1877-09-06 09:00:00 TS 18.0222 -34.4576 main 1850 1850 _____________P -1 18.0222 -34.4576 HU 65 12 270
1877247N14341 1877 25 NA NA NOT_NAMED 1877-09-06 12:00:00 TS 18.0000 -35.1000 main 1912 1912 _____________O -1 18.0000 -35.1000 HU 65 12 267
1877247N14341 1877 25 NA NA NOT_NAMED 1877-09-06 15:00:00 TS 17.9499 -35.7576 main 1985 1985 _____________P -1 17.9499 -35.7576 HU 65 12 265
1877247N14341 1877 25 NA NA NOT_NAMED 1877-09-06 18:00:00 TS 17.9000 -36.4000 main 2048 2048 _____________O -1 17.9000 -36.4000 HU 65 12 268
1877247N14341 1877 25 NA NA NOT_NAMED 1877-09-06 21:00:00 TS 17.8997 -37.0073 main 2111 2111 _____________P -1 17.8997 -37.0073 HU 65 11 270
1877247N14341 1877 25 NA NA NOT_NAMED 1877-09-07 00:00:00 TS 17.9000 -37.6000 main 2131 2086 _____________O -1 17.9000 -37.6000 HU 65 11 268
1877247N14341 1877 25 NA NA NOT_NAMED 1877-09-07 03:00:00 TS 17.8499 -38.2076 main 2078 2034 _____________P -1 17.8499 -38.2076 HU 65 11 265
1877247N14341 1877 25 NA NA NOT_NAMED 1877-09-07 06:00:00 TS 17.8000 -38.8000 main 2034 1998 _____________O -1 17.8000 -38.8000 HU 65 11 267
1877247N14341 1877 25 NA NA NOT_NAMED 1877-09-07 09:00:00 TS 17.7998 -39.3574 main 1991 1956 _____________P -1 17.7998 -39.3574 HU 65 10 270
1877247N14341 1877 25 NA NA NOT_NAMED 1877-09-07 12:00:00 TS 17.8000 -39.9000 main 1956 1922 _____________O -1 17.8000 -39.9000 HU 65 10 267
1877247N14341 1877 25 NA NA NOT_NAMED 1877-09-07 15:00:00 TS 17.7498 -40.4501 main 1906 1873 _____________P -1 17.7498 -40.4501 HU 65 11 265
1877247N14341 1877 25 NA NA NOT_NAMED 1877-09-07 18:00:00 TS 17.7000 -41.0000 main 1873 1841 _____________O -1 17.7000 -41.0000 HU 65 11 267
1877247N14341 1877 25 NA NA NOT_NAMED 1877-09-07 21:00:00 TS 17.6999 -41.5574 main 1835 1804 _____________P -1 17.6999 -41.5574 HU 65 10 270
1877247N14341 1877 25 NA NA NOT_NAMED 1877-09-08 00:00:00 TS 17.7000 -42.1000 main 1804 1772 _____________O -1 17.7000 -42.1000 HU 65 10 268
1877247N14341 1877 25 NA NA NOT_NAMED 1877-09-08 03:00:00 TS 17.6573 -42.6075 main 1772 1731 _____________P -1 17.6573 -42.6075 HU 65 10 264
1877247N14341 1877 25 NA NA NOT_NAMED 1877-09-08 06:00:00 TS 17.6000 -43.1000 main 1731 1690 _____________O -1 17.6000 -43.1000 HU 65 10 263
1877247N14341 1877 25 NA NA NOT_NAMED 1877-09-08 09:00:00 TS 17.5424 -43.6000 main 1690 1659 _____________P -1 17.5424 -43.6000 HU 65 10 264
1877247N14341 1877 25 NA NA NOT_NAMED 1877-09-08 12:00:00 TS 17.5000 -44.1000 main 1659 1629 _____________O -1 17.5000 -44.1000 HU 65 10 267
1877247N14341 1877 25 NA NA NOT_NAMED 1877-09-08 15:00:00 TS 17.4849 -44.6075 main 1629 1601 _____________P -1 17.4849 -44.6075 HU 65 10 270
1877247N14341 1877 25 NA NA NOT_NAMED 1877-09-08 18:00:00 TS 17.5000 -45.1000 main 1601 1579 _____________O -1 17.5000 -45.1000 HU 65 9 274
1877247N14341 1877 25 NA NA NOT_NAMED 1877-09-08 21:00:00 TS 17.5423 -45.5575 main 1574 1563 _____________P -1 17.5423 -45.5575 HU 65 9 277
1877247N14341 1877 25 NA NA NOT_NAMED 1877-09-09 00:00:00 TS 17.6000 -46.0000 main 1563 1543 _____________O -1 17.6000 -46.0000 HU 65 9 277
1877247N14341 1877 25 NA NA NOT_NAMED 1877-09-09 03:00:00 TS 17.6424 -46.4501 main 1538 1529 _____________P -1 17.6424 -46.4501 HU 65 9 277
1877247N14341 1877 25 NA NA NOT_NAMED 1877-09-09 06:00:00 TS 17.7000 -46.9000 main 1529 1520 _____________O -1 17.7000 -46.9000 HU 65 9 280
1877247N14341 1877 25 NA NA NOT_NAMED 1877-09-09 09:00:00 TS 17.7924 -47.3500 main 1522 1509 _____________P -1 17.7924 -47.3500 HU 65 9 283
1877247N14341 1877 25 NA NA NOT_NAMED 1877-09-09 12:00:00 TS 17.9000 -47.8000 main 1512 1503 _____________O -1 17.9000 -47.8000 HU 65 9 283
1877247N14341 1877 25 NA NA NOT_NAMED 1877-09-09 15:00:00 TS 17.9924 -48.2501 main 1498 1489 _____________P -1 17.9924 -48.2501 HU 65 9 283
1877247N14341 1877 25 NA NA NOT_NAMED 1877-09-09 18:00:00 TS 18.1000 -48.7000 main 1491 1482 _____________O -1 18.1000 -48.7000 HU 65 9 286
1877247N14341 1877 25 NA NA NOT_NAMED 1877-09-09 21:00:00 TS 18.2424 -49.1500 main 1480 1479 _____________P -1 18.2424 -49.1500 HU 65 9 289
1877247N14341 1877 25 NA NA NOT_NAMED 1877-09-10 00:00:00 TS 18.4000 -49.6000 main 1486 1470 _____________O -1 18.4000 -49.6000 HU 65 9 290
1877247N14341 1877 25 NA NA NOT_NAMED 1877-09-10 03:00:00 TS 18.5574 -50.0500 main 1468 1440 _____________P -1 18.5574 -50.0500 HU 65 9 289
1877247N14341 1877 25 NA NA NOT_NAMED 1877-09-10 06:00:00 TS 18.7000 -50.5000 main 1440 1414 _____________O -1 18.7000 -50.5000 HU 65 9 286
1877247N14341 1877 25 NA NA NOT_NAMED 1877-09-10 09:00:00 TS 18.7999 -50.9502 main 1406 1380 _____________P -1 18.7999 -50.9502 HU 67 9 283
1877247N14341 1877 25 NA NA NOT_NAMED 1877-09-10 12:00:00 TS 18.9000 -51.4000 main 1380 1356 _____________O -1 18.9000 -51.4000 HU 70 9 286
1877247N14341 1877 25 NA NA NOT_NAMED 1877-09-10 15:00:00 TS 19.0424 -51.8500 main 1348 1333 _____________P -1 19.0424 -51.8500 HU 72 9 289
1877247N14341 1877 25 NA NA NOT_NAMED 1877-09-10 18:00:00 TS 19.2000 -52.3000 main 1333 1311 _____________O -1 19.2000 -52.3000 HU 75 9 290
1877247N14341 1877 25 NA NA NOT_NAMED 1877-09-10 21:00:00 TS 19.3499 -52.7501 main 1304 1292 _____________P -1 19.3499 -52.7501 HU 77 9 289
1877247N14341 1877 25 NA NA NOT_NAMED 1877-09-11 00:00:00 TS 19.5000 -53.2000 main 1292 1268 _____________O -1 19.5000 -53.2000 HU 80 9 289
1877247N14341 1877 25 NA NA NOT_NAMED 1877-09-11 03:00:00 TS 19.6424 -53.6501 main 1258 1218 _____________P -1 19.6424 -53.6501 HU 82 9 289
1877247N14341 1877 25 NA NA NOT_NAMED 1877-09-11 06:00:00 TS 19.8000 -54.1000 main 1218 1177 _____________O -1 19.8000 -54.1000 HU 85 9 292
1877247N14341 1877 25 NA NA NOT_NAMED 1877-09-11 09:00:00 TS 19.9850 -54.5650 main 1168 1130 _____________P -1 19.9850 -54.5650 HU 85 9 295
1877247N14341 1877 25 NA NA NOT_NAMED 1877-09-11 12:00:00 TS 20.2000 -55.0000 main 1130 1092 _____________O -1 20.2000 -55.0000 HU 85 9 300
1877247N14341 1877 25 NA NA NOT_NAMED 1877-09-11 15:00:00 TS 20.4274 -55.3727 main 1092 1068 _____________P -1 20.4274 -55.3727 HU 85 8 307
1877247N14341 1877 25 NA NA NOT_NAMED 1877-09-11 18:00:00 TS 20.7000 -55.7000 main 1068 1045 _____________O -1 20.7000 -55.7000 HU 85 9 316
1877247N14341 1877 25 NA NA NOT_NAMED 1877-09-11 21:00:00 TS 21.0349 -56.0076 main 1045 1025 _____________P -1 21.0349 -56.0076 HU 85 9 321
1877247N14341 1877 25 NA NA NOT_NAMED 1877-09-12 00:00:00 TS 21.4000 -56.3000 main 1028 1009 _____________O -1 21.4000 -56.3000 HU 85 9 322
1877247N14341 1877 25 NA NA NOT_NAMED 1877-09-12 03:00:00 TS 21.7499 -56.6001 main 1009 997 _____________P -1 21.7499 -56.6001 HU 85 9 322
1877247N14341 1877 25 NA NA NOT_NAMED 1877-09-12 06:00:00 TS 22.1000 -56.9000 main 997 982 _____________O -1 22.1000 -56.9000 HU 85 9 321
1877247N14341 1877 25 NA NA NOT_NAMED 1877-09-12 09:00:00 TS 22.4500 -57.2150 main 987 970 _____________P -1 22.4500 -57.2150 HU 85 9 322
1877247N14341 1877 25 NA NA NOT_NAMED 1877-09-12 12:00:00 TS 22.8000 -57.5000 main 975 972 _____________O -1 22.8000 -57.5000 HU 85 8 327
1877247N14341 1877 25 NA NA NOT_NAMED 1877-09-12 15:00:00 TS 23.1499 -57.7152 main 974 971 _____________P -1 23.1499 -57.7152 HU 85 8 332
1877247N14341 1877 25 NA NA NOT_NAMED 1877-09-12 18:00:00 TS 23.5000 -57.9000 main 981 979 _____________O -1 23.5000 -57.9000 HU 85 8 333
1877247N14341 1877 25 NA NA NOT_NAMED 1877-09-12 21:00:00 TS 23.8500 -58.1001 main 984 982 _____________P -1 23.8500 -58.1001 HU 85 8 332
1877247N14341 1877 25 NA NA NOT_NAMED 1877-09-13 00:00:00 TS 24.2000 -58.3000 main 995 995 _____________O -1 24.2000 -58.3000 HU 85 8 332
1877247N14341 1877 25 NA NA NOT_NAMED 1877-09-13 03:00:00 TS 24.5575 -58.5075 main 1009 1001 _____________P -1 24.5575 -58.5075 HU 85 8 332
1877247N14341 1877 25 NA NA NOT_NAMED 1877-09-13 06:00:00 TS 24.9000 -58.7000 main 1017 1017 _____________O -1 24.9000 -58.7000 HU 85 7 333
1877247N14341 1877 25 NA NA NOT_NAMED 1877-09-13 09:00:00 TS 25.2075 -58.8800 main 1027 1027 _____________P -1 25.2075 -58.8800 HU 85 7 336
1877247N14341 1877 25 NA NA NOT_NAMED 1877-09-13 12:00:00 TS 25.5000 -59.0000 main 1045 1045 _____________O -1 25.5000 -59.0000 HU 85 6 347
1877247N14341 1877 25 NA NA NOT_NAMED 1877-09-13 15:00:00 TS 25.8000 -59.0376 main 1070 1070 _____________P -1 25.8000 -59.0376 HU 85 6 1
1877247N14341 1877 25 NA NA NOT_NAMED 1877-09-13 18:00:00 TS 26.1000 -59.0000 main 1095 1095 _____________O -1 26.1000 -59.0000 HU 85 6 8
1877247N14341 1877 25 NA NA NOT_NAMED 1877-09-13 21:00:00 TS 26.4224 -58.9450 main 1128 1128 _____________P -1 26.4224 -58.9450 HU 85 6 16
1877247N14341 1877 25 NA NA NOT_NAMED 1877-09-14 00:00:00 TS 26.7000 -58.8000 main 1160 1160 _____________O -1 26.7000 -58.8000 HU 85 6 39
1877247N14341 1877 25 NA NA NOT_NAMED 1877-09-14 03:00:00 TS 26.8951 -58.5226 main 1196 1196 _____________P -1 26.8951 -58.5226 HU 85 6 61
1877247N14341 1877 25 NA NA NOT_NAMED 1877-09-14 06:00:00 TS 27.0000 -58.2000 main 1224 1224 _____________O -1 27.0000 -58.2000 HU 85 5 75
1877247N14341 1877 25 NA NA NOT_NAMED 1877-09-14 09:00:00 TS 27.0299 -57.9499 main 1243 1243 _____________P -1 27.0299 -57.9499 HU 85 4 90
1877247N14341 1877 25 NA NA NOT_NAMED 1877-09-14 12:00:00 TS 27.0000 -57.7000 main 1256 1256 _____________O -1 27.0000 -57.7000 HU 85 5 98
1877247N14341 1877 25 NA NA NOT_NAMED 1877-09-14 15:00:00 TS 26.9575 -57.4000 main 1276 1274 _____________P -1 26.9575 -57.4000 HU 85 5 101
1877247N14341 1877 25 NA NA NOT_NAMED 1877-09-14 18:00:00 TS 26.9000 -57.1000 main 1288 1288 _____________O -1 26.9000 -57.1000 HU 85 5 102
1877247N14341 1877 25 NA NA NOT_NAMED 1877-09-14 21:00:00 TS 26.8574 -56.8501 main 1302 1301 _____________P -1 26.8574 -56.8501 HU 85 5 103
1877247N14341 1877 25 NA NA NOT_NAMED 1877-09-15 00:00:00 TS 26.8000 -56.6000 main 1316 1316 _____________O -1 26.8000 -56.6000 HU 85 5 108
1877247N14341 1877 25 NA NA NOT_NAMED 1877-09-15 03:00:00 TS 26.7000 -56.2999 main 1330 1330 _____________P -1 26.7000 -56.2999 HU 85 6 110
1877247N14341 1877 25 NA NA NOT_NAMED 1877-09-15 06:00:00 TS 26.6000 -56.0000 main 1345 1345 _____________O -1 26.6000 -56.0000 HU 85 5 107
1877247N14341 1877 25 NA NA NOT_NAMED 1877-09-15 09:00:00 TS 26.5425 -55.7276 main 1360 1360 _____________P -1 26.5425 -55.7276 HU 85 5 103
1877247N14341 1877 25 NA NA NOT_NAMED 1877-09-15 12:00:00 TS 26.5000 -55.5000 main 1375 1375 _____________O -1 26.5000 -55.5000 HU 85 4 105
1877247N14341 1877 25 NA NA NOT_NAMED 1877-09-15 15:00:00 TS 26.4499 -55.3350 main 1384 1384 _____________P -1 26.4499 -55.3350 HU 85 3 111
1877247N14341 1877 25 NA NA NOT_NAMED 1877-09-15 18:00:00 TS 26.4000 -55.2000 main 1392 1392 _____________O -1 26.4000 -55.2000 HU 85 3 113
1877247N14341 1877 25 NA NA NOT_NAMED 1877-09-15 21:00:00 TS 26.3425 -55.0500 main 1401 1401 _____________P -1 26.3425 -55.0500 HU 85 3 111
1877247N14341 1877 25 NA NA NOT_NAMED 1877-09-16 00:00:00 TS 26.3000 -54.9000 main 1409 1409 _____________O -1 26.3000 -54.9000 HU 85 3 99
1877247N14341 1877 25 NA NA NOT_NAMED 1877-09-16 03:00:00 TS 26.3000 -54.7501 main 1417 1417 _____________P -1 26.3000 -54.7501 HU 85 3 90
1877247N14341 1877 25 NA NA NOT_NAMED 1877-09-16 06:00:00 TS 26.3000 -54.6000 main 1433 1433 _____________O -1 26.3000 -54.6000 HU 85 3 101
1877247N14341 1877 25 NA NA NOT_NAMED 1877-09-16 09:00:00 TS 26.2499 -54.4650 main 1435 1435 _____________P -1 26.2499 -54.4650 HU 85 3 111
1877247N14341 1877 25 NA NA NOT_NAMED 1877-09-16 12:00:00 TS 26.2000 -54.3000 main 1451 1451 _____________O -1 26.2000 -54.3000 HU 85 4 99
1877247N14341 1877 25 NA NA NOT_NAMED 1877-09-16 15:00:00 TS 26.1925 -54.0650 main 1468 1468 _____________P -1 26.1925 -54.0650 HU 85 4 90
1877247N14341 1877 25 NA NA NOT_NAMED 1877-09-16 18:00:00 TS 26.2000 -53.8000 main 1492 1492 _____________O -1 26.2000 -53.8000 HU 85 5 89
1877247N14341 1877 25 NA NA NOT_NAMED 1877-09-16 21:00:00 TS 26.2000 -53.5500 main 1518 1509 _____________P -1 26.2000 -53.5500 HU 85 4 90
1877247N14341 1877 25 NA NA NOT_NAMED 1877-09-17 00:00:00 TS 26.2000 -53.3000 main 1534 1534 _____________O -1 26.2000 -53.3000 HU 85 4 90
1877247N14341 1877 25 NA NA NOT_NAMED 1877-09-17 03:00:00 TS 26.2000 -53.0500 main 1560 1560 _____________P -1 26.2000 -53.0500 HU 85 4 90
1877247N14341 1877 25 NA NA NOT_NAMED 1877-09-17 06:00:00 TS 26.2000 -52.8000 main 1577 1577 _____________O -1 26.2000 -52.8000 HU 85 4 94
1877247N14341 1877 25 NA NA NOT_NAMED 1877-09-17 09:00:00 TS 26.1699 -52.5573 main 1594 1594 _____________P -1 26.1699 -52.5573 HU 85 4 90
1877247N14341 1877 25 NA NA NOT_NAMED 1877-09-17 12:00:00 TS 26.2000 -52.3000 main 1620 1620 _____________O -1 26.2000 -52.3000 HU 85 5 67
1877247N14341 1877 25 NA NA NOT_NAMED 1877-09-17 15:00:00 TS 26.3775 -52.0002 main 1657 1657 _____________P -1 26.3775 -52.0002 HU 85 7 53
1877247N14341 1877 25 NA NA NOT_NAMED 1877-09-17 18:00:00 TS 26.6000 -51.7000 main 1694 1694 _____________O -1 26.6000 -51.7000 HU 85 6 52
1877247N14341 1877 25 NA NA NOT_NAMED 1877-09-17 21:00:00 TS 26.7574 -51.4498 main 1731 1731 _____________P -1 26.7574 -51.4498 HU 82 5 56
1877247N14341 1877 25 NA NA NOT_NAMED 1877-09-18 00:00:00 TS 26.9000 -51.2000 main 1754 1754 _____________O -1 26.9000 -51.2000 HU 80 6 59
1877247N14341 1877 25 NA NA NOT_NAMED 1877-09-18 03:00:00 TS 27.0500 -50.9000 main 1790 1790 _____________P -1 27.0500 -50.9000 HU 80 6 61
1877247N14341 1877 25 NA NA NOT_NAMED 1877-09-18 06:00:00 TS 27.2000 -50.6000 main 1822 1822 _____________O -1 27.2000 -50.6000 HU 80 6 60
1877247N14341 1877 25 NA NA NOT_NAMED 1877-09-18 09:00:00 TS 27.3424 -50.3349 main 1853 1853 _____________P -1 27.3424 -50.3349 HU 80 5 56
1877247N14341 1877 25 NA NA NOT_NAMED 1877-09-18 12:00:00 TS 27.5000 -50.1000 main 1881 1881 _____________O -1 27.5000 -50.1000 HU 80 5 49
1877247N14341 1877 25 NA NA NOT_NAMED 1877-09-18 15:00:00 TS 27.6925 -49.8850 main 1909 1909 _____________P -1 27.6925 -49.8850 HU 80 5 41
1877247N14341 1877 25 NA NA NOT_NAMED 1877-09-18 18:00:00 TS 27.9000 -49.7000 main 1937 1937 _____________O -1 27.9000 -49.7000 HU 80 5 37
1877247N14341 1877 25 NA NA NOT_NAMED 1877-09-18 21:00:00 TS 28.1000 -49.5424 main 1966 1966 _____________P -1 28.1000 -49.5424 HU 80 5 34
1877247N14341 1877 25 NA NA NOT_NAMED 1877-09-19 00:00:00 TS 28.3000 -49.4000 main 1985 1985 _____________O -1 28.3000 -49.4000 HU 80 5 33
1877247N14341 1877 25 NA NA NOT_NAMED 1877-09-19 03:00:00 TS 28.5000 -49.2499 main 2013 2013 _____________P -1 28.5000 -49.2499 HU 77 5 33
1877247N14341 1877 25 NA NA NOT_NAMED 1877-09-19 06:00:00 TS 28.7000 -49.1000 main 2024 2004 _____________O -1 28.7000 -49.1000 HU 75 5 32
1877247N14341 1877 25 NA NA NOT_NAMED 1877-09-19 09:00:00 TS 28.8999 -48.9649 main 2004 1985 _____________P -1 28.8999 -48.9649 HU 75 5 33
1877247N14341 1877 25 NA NA NOT_NAMED 1877-09-19 12:00:00 TS 29.1000 -48.8000 main 1985 1967 _____________O -1 29.1000 -48.8000 HU 75 5 42
1877247N14341 1877 25 NA NA NOT_NAMED 1877-09-19 15:00:00 TS 29.3001 -48.5575 main 1967 1948 _____________P -1 29.3001 -48.5575 HU 75 6 47
1877247N14341 1877 25 NA NA NOT_NAMED 1877-09-19 18:00:00 TS 29.5000 -48.3000 main 1950 1932 _____________O -1 29.5000 -48.3000 HU 75 6 45
1877247N14341 1877 25 NA NA NOT_NAMED 1877-09-19 21:00:00 TS 29.6999 -48.0924 main 1932 1914 _____________P -1 29.6999 -48.0924 HU 75 5 41
1877247N14341 1877 25 NA NA NOT_NAMED 1877-09-20 00:00:00 TS 29.9000 -47.9000 main 1914 1895 _____________O -1 29.9000 -47.9000 HU 75 5 40
1877247N14341 1877 25 NA NA NOT_NAMED 1877-09-20 03:00:00 TS 30.0999 -47.7074 main 1897 1879 _____________P -1 30.0999 -47.7074 HU 75 5 41
1877247N14341 1877 25 NA NA NOT_NAMED 1877-09-20 06:00:00 TS 30.3000 -47.5000 main 1879 1871 _____________O -1 30.3000 -47.5000 HU 75 5 47
1877247N14341 1877 25 NA NA NOT_NAMED 1877-09-20 09:00:00 TS 30.4473 -47.2792 main 1873 1848 _____________P -1 30.4473 -47.2792 HU 75 6 47
1877247N14341 1877 25 NA NA NOT_NAMED 1877-09-20 12:00:00 TS 30.7000 -47.0000 main 1848 1804 _____________O -1 30.7000 -47.0000 HU 75 9 37
1877247N14341 1877 25 NA NA NOT_NAMED 1877-09-20 15:00:00 TS 31.1976 -46.6155 main 1804 1752 _____________P -1 31.1976 -46.6155 HU 75 13 32
1877247N14341 1877 25 NA NA NOT_NAMED 1877-09-20 18:00:00 TS 31.8000 -46.2000 main 1752 1708 _____________O -1 31.8000 -46.2000 HU 75 13 29
1877247N14341 1877 25 NA NA NOT_NAMED 1877-09-20 21:00:00 TS 32.3498 -45.8493 main 1711 1658 _____________P -1 32.3498 -45.8493 HU 75 13 28
1877247N14341 1877 25 NA NA NOT_NAMED 1877-09-21 00:00:00 TS 32.9000 -45.5000 main 1658 1616 _____________O -1 32.9000 -45.5000 HU 75 13 30
1877247N14341 1877 25 NA NA NOT_NAMED 1877-09-21 03:00:00 TS 33.4575 -45.0999 main 1609 1573 _____________P -1 33.4575 -45.0999 HU 72 13 31
1877247N14341 1877 25 NA NA NOT_NAMED 1877-09-21 06:00:00 TS 34.0000 -44.7000 main 1573 1534 _____________O -1 34.0000 -44.7000 HU 70 12 31
1877247N14341 1877 25 NA NA NOT_NAMED 1877-09-21 09:00:00 TS 34.4924 -44.3343 main 1538 1501 _____________P -1 34.4924 -44.3343 HU 70 12 30
1877247N14341 1877 25 NA NA NOT_NAMED 1877-09-21 12:00:00 TS 35.0000 -44.0000 main 1501 1456 _____________O -1 35.0000 -44.0000 HU 70 12 26
1877247N14341 1877 25 NA NA NOT_NAMED 1877-09-21 15:00:00 TS 35.5849 -43.6921 main 1456 1412 _____________P -1 35.5849 -43.6921 HU 70 13 22
1877247N14341 1877 25 NA NA NOT_NAMED 1877-09-21 18:00:00 TS 36.2000 -43.4000 main 1412 1371 _____________O -1 36.2000 -43.4000 HU 70 13 21
1877247N14341 1877 25 NA NA NOT_NAMED 1877-09-21 21:00:00 TS 36.7999 -43.1069 main 1371 1332 _____________P -1 36.7999 -43.1069 HU 70 13 22
1877247N14341 1877 25 NA NA NOT_NAMED 1877-09-22 00:00:00 TS 37.4000 -42.8000 main 1332 1295 _____________O -1 37.4000 -42.8000 HU 70 13 24
1877247N14341 1877 25 NA NA NOT_NAMED 1877-09-22 03:00:00 TS 38.0001 -42.4425 main 1300 1266 _____________P -1 38.0001 -42.4425 HU 70 13 25
1877247N14341 1877 25 NA NA NOT_NAMED 1877-09-22 06:00:00 TS 38.6000 -42.1000 main 1266 1229 _____________O -1 38.6000 -42.1000 HU 70 13 21
1877247N14341 1877 25 NA NA NOT_NAMED 1877-09-22 09:00:00 TS 39.2223 -41.8344 main 1235 1201 _____________P -1 39.2223 -41.8344 HU 70 13 18
1877247N14341 1877 25 NA NA NOT_NAMED 1877-09-22 12:00:00 TS 39.8000 -41.6000 main 1201 1184 _____________O -1 39.8000 -41.6000 HU 70 11 20
1877247N14341 1877 25 NA NA NOT_NAMED 1877-09-22 15:00:00 TS 40.2725 -41.3347 main 1183 1167 _____________P -1 40.2725 -41.3347 HU 70 10 23
1877247N14341 1877 25 NA NA NOT_NAMED 1877-09-22 18:00:00 TS 40.7000 -41.1000 main 1167 1145 _____________O -1 40.7000 -41.1000 HU 70 9 19
1877247N14341 1877 25 NA NA NOT_NAMED 1877-09-22 21:00:00 TS 41.1499 -40.9418 main 1152 1125 _____________P -1 41.1499 -40.9418 HU 70 9 14
1877247N14341 1877 25 NA NA NOT_NAMED 1877-09-23 00:00:00 TS 41.6000 -40.8000 main 1126 1114 _____________O -1 41.6000 -40.8000 HU 70 9 16
1877247N14341 1877 25 NA NA NOT_NAMED 1877-09-23 03:00:00 TS 42.0425 -40.6000 main 1115 1098 _____________P -1 42.0425 -40.6000 HU 70 9 18
1877247N14341 1877 25 NA NA NOT_NAMED 1877-09-23 06:00:00 TS 42.5000 -40.4000 main 1100 1079 _____________O -1 42.5000 -40.4000 HU 70 10 15
1877247N14341 1877 25 NA NA NOT_NAMED 1877-09-23 09:00:00 TS 42.9999 -40.2495 main 1086 1065 _____________P -1 42.9999 -40.2495 HU 70 10 12
1877247N14341 1877 25 NA NA NOT_NAMED 1877-09-23 12:00:00 TS 43.5000 -40.1000 main 1065 1056 _____________O -1 43.5000 -40.1000 HU 70 10 15
1877247N14341 1877 25 NA NA NOT_NAMED 1877-09-23 15:00:00 TS 43.9500 -39.8999 main 1054 1047 _____________P -1 43.9500 -39.8999 HU 70 9 18
1877247N14341 1877 25 NA NA NOT_NAMED 1877-09-23 18:00:00 TS 44.4000 -39.7000 main 1049 1035 _____________O -1 44.4000 -39.7000 HU 70 10 15
1877247N14341 1877 25 NA NA NOT_NAMED 1877-09-23 21:00:00 TS 44.8999 -39.5495 main 1043 1031 _____________P -1 44.8999 -39.5495 HU 70 10 12
1877247N14341 1877 25 NA NA NOT_NAMED 1877-09-24 00:00:00 TS 45.4000 -39.4000 main 1032 1028 _____________O -1 45.4000 -39.4000 HU 70 983 10 14
1877247N14341 1877 25 NA NA NOT_NAMED 1877-09-24 03:00:00 TS 45.8500 -39.1999 main 1031 1031 _____________P -1 45.8500 -39.1999 HU 70 9 17
1877247N14341 1877 25 NA NA NOT_NAMED 1877-09-24 06:00:00 TS 46.3000 -39.0000 main 1036 1033 _____________O -1 46.3000 -39.0000 HU 70 10 14
1877247N14341 1877 25 NA NA NOT_NAMED 1877-09-24 09:00:00 TS 46.7924 -38.8494 main 1040 1035 _____________P -1 46.7924 -38.8494 HU 65 10 12
1877247N14341 1877 25 NA NA NOT_NAMED 1877-09-24 12:00:00 ET 47.3000 -38.7000 main 1040 1039 _____________O -1 47.3000 -38.7000 EX 60 10 13
1877247N14341 1877 25 NA NA NOT_NAMED 1877-09-24 15:00:00 ET 47.8026 -38.5135 main 1050 1050 _____________P -1 47.8026 -38.5135 EX 55 10 15
1877247N14341 1877 25 NA NA NOT_NAMED 1877-09-24 18:00:00 ET 48.3000 -38.3000 main 1063 _____________O -1 48.3000 -38.3000 EX 50 10 16

About IBTrACS Database

This database is a web-friendly format of International Best Track Archive for Climate Stewardship (IBTrACS), a global best track data archive curated by NOAA dating back to 1842.

Updated: 2021-10-21